createdAt,value
2023-03-26T00:03:55.561Z,0.07
2023-03-26T00:08:59.270Z,0.16
2023-03-26T00:14:03.083Z,0.31
2023-03-26T00:19:06.185Z,0.42
2023-03-26T00:24:15.456Z,0.51
2023-03-26T00:29:19.032Z,0.54
2023-03-26T00:34:23.351Z,0.56
2023-03-26T00:39:26.177Z,0.59
2023-03-26T00:44:29.129Z,0.63
2023-03-26T00:49:32.368Z,0.59
2023-03-26T00:54:35.913Z,0.64
2023-03-26T00:59:38.856Z,0.69
2023-03-26T01:04:45.878Z,0.79
2023-03-26T01:09:53.416Z,0.96
2023-03-26T01:15:00.988Z,1.16
2023-03-26T01:20:20.803Z,1.46
2023-03-26T01:25:24.496Z,1.61
2023-03-26T01:30:50.018Z,1.68
2023-03-26T01:36:21.574Z,1.68
2023-03-26T01:41:54.666Z,1.18
2023-03-26T01:46:59.765Z,1.18
2023-03-26T01:52:02.676Z,1.32
2023-03-26T01:57:37.651Z,1.49
2023-03-26T02:03:00.533Z,1.71
2023-03-26T02:08:26.313Z,2.00
2023-03-26T02:13:29.102Z,2.18
2023-03-26T02:18:39.362Z,2.42
2023-03-26T02:23:47.265Z,2.92
2023-03-26T02:28:50.615Z,3.32
2023-03-26T02:33:55.765Z,3.70
2023-03-26T02:39:00.642Z,3.99
2023-03-26T02:44:07.251Z,3.96
2023-03-26T02:49:45.532Z,3.64
2023-03-26T02:54:55.015Z,3.39
2023-03-26T02:59:59.402Z,3.46
2023-03-26T03:05:14.392Z,3.94
2023-03-26T03:10:17.209Z,4.56
2023-03-26T03:15:42.141Z,4.94
2023-03-26T03:20:45.182Z,4.87
2023-03-26T03:25:48.355Z,4.79
2023-03-26T03:30:54.354Z,4.75
2023-03-26T03:36:20.846Z,4.78
2023-03-26T03:41:33.383Z,4.82
2023-03-26T03:46:39.379Z,4.86
2023-03-26T03:51:42.900Z,4.94
2023-03-26T03:56:57.367Z,5.23
2023-03-26T04:02:30.595Z,5.51
2023-03-26T04:07:37.988Z,5.77
2023-03-26T04:12:40.868Z,6.06
2023-03-26T04:17:46.733Z,6.41
2023-03-26T04:22:53.172Z,6.91
2023-03-26T04:28:06.855Z,7.51
2023-03-26T04:33:35.714Z,8.10
2023-03-26T04:38:45.415Z,8.59
2023-03-26T04:43:50.942Z,9.10
2023-03-26T04:49:11.917Z,9.28
2023-03-26T04:54:17.177Z,9.48
2023-03-26T04:59:33.584Z,9.76
2023-03-26T05:04:41.189Z,10.21
2023-03-26T05:09:44.622Z,9.96
2023-03-26T05:14:51.464Z,9.42
2023-03-26T05:20:22.123Z,9.01
2023-03-26T05:25:25.055Z,9.01
2023-03-26T05:30:28.331Z,9.33
2023-03-26T05:35:35.709Z,9.81
2023-03-26T05:40:39.378Z,10.45
2023-03-26T05:45:43.490Z,10.89
2023-03-26T05:50:58.033Z,10.79
2023-03-26T05:56:04.669Z,10.45
2023-03-26T06:01:30.342Z,10.15
2023-03-26T06:06:53.047Z,10.12
2023-03-26T06:11:56.298Z,10.12
2023-03-26T06:16:59.271Z,10.33
2023-03-26T06:22:02.206Z,10.80
2023-03-26T06:27:20.363Z,11.08
2023-03-26T06:32:49.460Z,11.18
2023-03-26T06:37:58.037Z,11.64
2023-03-26T06:43:09.008Z,12.38
2023-03-26T06:48:34.042Z,13.01
2023-03-26T06:53:49.153Z,13.29
2023-03-26T06:59:01.396Z,13.49
2023-03-26T07:04:06.878Z,13.35
2023-03-26T07:09:30.660Z,13.12
2023-03-26T07:14:51.648Z,13.38
2023-03-26T07:20:12.895Z,13.74
2023-03-26T07:25:17.897Z,13.74
2023-03-26T07:31:11.908Z,13.72
2023-03-26T07:37:00.091Z,13.68
2023-03-26T07:42:31.699Z,13.63
2023-03-26T07:48:27.719Z,13.47
2023-03-26T07:53:52.936Z,13.25
2023-03-26T07:59:19.951Z,13.09
2023-03-26T08:04:53.975Z,12.95
2023-03-26T08:10:27.054Z,12.84
2023-03-26T08:15:44.363Z,12.78
2023-03-26T08:20:50.815Z,12.85
2023-03-26T08:26:06.122Z,12.90
2023-03-26T08:31:10.795Z,13.04
2023-03-26T08:36:13.617Z,12.98
2023-03-26T08:41:37.915Z,13.06
2023-03-26T08:46:51.106Z,13.01
2023-03-26T08:52:24.890Z,12.79
2023-03-26T08:57:49.496Z,12.69
2023-03-26T09:03:20.071Z,12.58
2023-03-26T09:08:53.643Z,12.54
2023-03-26T09:14:31.433Z,12.69
2023-03-26T09:20:00.114Z,12.56
2023-03-26T09:25:41.983Z,12.33
2023-03-26T09:30:50.242Z,12.24
2023-03-26T09:36:16.313Z,12.31
2023-03-26T09:41:41.587Z,12.41
2023-03-26T09:46:52.020Z,12.29
2023-03-26T09:52:03.529Z,12.30
2023-03-26T09:57:26.134Z,12.28
2023-03-26T10:03:16.487Z,12.29
2023-03-26T10:08:40.359Z,12.24
2023-03-26T10:14:04.310Z,12.46
2023-03-26T10:19:11.479Z,12.48
2023-03-26T10:24:29.632Z,12.04
2023-03-26T10:30:13.277Z,11.75
2023-03-26T10:35:53.281Z,11.54
2023-03-26T10:41:24.919Z,11.50
2023-03-26T10:46:48.998Z,11.25
2023-03-26T10:52:11.511Z,10.80
2023-03-26T10:57:26.667Z,10.53
2023-03-26T11:02:39.851Z,10.36
2023-03-26T11:07:52.171Z,10.17
2023-03-26T11:13:09.873Z,10.14
2023-03-26T11:18:39.663Z,10.12
2023-03-26T11:24:05.122Z,10.03
2023-03-26T11:29:32.434Z,9.92
2023-03-26T11:34:51.244Z,9.93
2023-03-26T11:39:57.231Z,9.91
2023-03-26T11:45:06.040Z,9.71
2023-03-26T11:50:17.385Z,9.55
2023-03-26T11:55:20.308Z,9.38
2023-03-26T12:00:23.656Z,9.16
2023-03-26T12:05:31.674Z,9.09
2023-03-26T12:10:39.317Z,8.92
2023-03-26T12:15:44.895Z,8.79
2023-03-26T12:20:48.553Z,8.70
2023-03-26T12:26:06.402Z,8.50
2023-03-26T12:31:18.453Z,8.29
2023-03-26T12:36:27.063Z,8.03
2023-03-26T12:42:52.812Z,7.70
2023-03-26T12:48:01.349Z,7.29
2023-03-26T12:52:42.235Z,6.93
2023-03-26T12:58:13.831Z,6.69
2023-03-26T13:03:33.175Z,6.40
2023-03-26T13:08:47.571Z,6.28
2023-03-26T13:13:53.096Z,6.13
2023-03-26T13:19:04.839Z,5.88
2023-03-26T13:24:41.393Z,5.67
2023-03-26T13:30:02.119Z,5.27
2023-03-26T13:35:17.999Z,5.05
2023-03-26T13:40:30.087Z,4.76
2023-03-26T13:45:46.203Z,4.52
2023-03-26T13:51:11.950Z,4.36
2023-03-26T13:56:17.876Z,4.11
2023-03-26T14:01:24.466Z,4.05
2023-03-26T14:06:49.159Z,3.97
2023-03-26T14:11:58.336Z,3.87
2023-03-26T14:17:07.270Z,3.82
2023-03-26T14:22:18.635Z,3.82
2023-03-26T14:27:34.489Z,3.76
2023-03-26T14:33:14.826Z,3.85
2023-03-26T14:38:35.944Z,3.80
2023-03-26T14:44:00.135Z,3.89
2023-03-26T14:49:40.684Z,3.93
2023-03-26T14:54:46.072Z,4.07
2023-03-26T15:00:26.244Z,4.16
2023-03-26T15:06:00.020Z,4.19
2023-03-26T15:11:17.677Z,4.27
2023-03-26T15:16:41.882Z,4.36
2023-03-26T15:22:13.305Z,4.39
2023-03-26T15:27:39.126Z,4.38
2023-03-26T15:33:14.701Z,4.29
2023-03-26T15:38:40.710Z,4.29
2023-03-26T15:44:23.629Z,4.25
2023-03-26T15:49:43.051Z,4.05
2023-03-26T15:54:59.555Z,4.08
2023-03-26T16:00:02.378Z,4.08
2023-03-26T16:05:24.625Z,4.07
2023-03-26T16:10:41.190Z,4.03
2023-03-26T16:15:47.773Z,4.01
2023-03-26T16:21:32.160Z,3.95
2023-03-26T16:26:44.810Z,3.98
2023-03-26T16:32:18.545Z,3.96
2023-03-26T16:37:40.078Z,3.97
2023-03-26T16:43:03.890Z,3.99
2023-03-26T16:48:27.662Z,3.93
2023-03-26T16:53:43.326Z,3.88
2023-03-26T16:58:49.764Z,3.89
2023-03-26T17:04:07.580Z,3.82
2023-03-26T17:09:32.110Z,3.78
2023-03-26T17:15:00.224Z,3.84
2023-03-26T17:20:21.405Z,3.85
2023-03-26T17:25:38.314Z,3.79
2023-03-26T17:31:03.851Z,3.81
2023-03-26T17:36:12.435Z,3.84
2023-03-26T17:41:55.778Z,3.83
2023-03-26T17:47:00.606Z,3.76
2023-03-26T17:52:16.093Z,3.74
2023-03-26T17:57:18.744Z,3.87
2023-03-26T18:02:25.598Z,3.95
2023-03-26T18:07:59.554Z,3.96
2023-03-26T18:13:09.003Z,4.00
2023-03-26T18:18:24.164Z,3.95
2023-03-26T18:23:29.933Z,4.15
2023-03-26T18:28:36.300Z,4.19
2023-03-26T18:33:44.639Z,4.27
2023-03-26T18:38:49.106Z,4.27
2023-03-26T18:43:51.848Z,4.35
2023-03-26T18:48:55.996Z,4.44
2023-03-26T18:54:01.165Z,4.51
2023-03-26T18:59:32.396Z,4.46
2023-03-26T19:04:36.385Z,4.45
2023-03-26T19:09:39.542Z,4.37
2023-03-26T19:15:11.004Z,4.29
2023-03-26T19:20:21.332Z,4.26
2023-03-26T19:25:50.389Z,4.30
2023-03-26T19:30:58.356Z,4.25
2023-03-26T19:36:18.273Z,4.27
2023-03-26T19:41:26.945Z,4.11
2023-03-26T19:46:33.765Z,4.09
2023-03-26T19:52:15.228Z,4.10
2023-03-26T19:57:17.942Z,4.11
2023-03-26T20:02:20.787Z,4.11
2023-03-26T20:07:35.307Z,3.94
2023-03-26T20:12:39.051Z,4.04
2023-03-26T20:17:43.180Z,4.06
2023-03-26T20:22:47.351Z,4.18
2023-03-26T20:27:51.269Z,4.27
2023-03-26T20:33:11.804Z,4.38
2023-03-26T20:38:17.050Z,4.39
2023-03-26T20:43:22.118Z,4.41
2023-03-26T20:48:27.438Z,4.41
2023-03-26T20:53:30.808Z,4.37
2023-03-26T20:58:33.579Z,4.31
2023-03-26T21:03:36.367Z,4.39
2023-03-26T21:08:40.198Z,4.38
2023-03-26T21:13:50.531Z,4.49
2023-03-26T21:18:53.741Z,4.57
2023-03-26T21:24:15.047Z,4.50
2023-03-26T21:29:18.254Z,4.52
2023-03-26T21:34:22.623Z,4.51
2023-03-26T21:39:26.031Z,4.59
2023-03-26T21:44:29.071Z,4.60
2023-03-26T21:49:32.089Z,4.63
2023-03-26T21:54:35.135Z,4.52
2023-03-26T21:59:51.752Z,4.55
2023-03-26T22:05:26.815Z,4.68
2023-03-26T22:10:30.538Z,4.70
2023-03-26T22:15:34.334Z,4.66
2023-03-26T22:20:37.987Z,4.66
2023-03-26T22:25:40.863Z,4.65
2023-03-26T22:30:43.573Z,4.59
2023-03-26T22:35:46.494Z,4.56
2023-03-26T22:40:56.694Z,4.56
2023-03-26T22:45:59.864Z,4.50
2023-03-26T22:51:08.412Z,4.45
2023-03-26T22:56:12.223Z,4.52
2023-03-26T23:01:21.691Z,4.49
2023-03-26T23:06:24.420Z,4.32
2023-03-26T23:11:29.876Z,4.48
2023-03-26T23:16:32.415Z,4.54
2023-03-26T23:21:37.052Z,4.56
2023-03-26T23:26:49.604Z,4.51
2023-03-26T23:31:54.300Z,4.51
2023-03-26T23:36:58.372Z,4.46
2023-03-26T23:42:01.163Z,4.48
2023-03-26T23:47:10.199Z,4.42
2023-03-26T23:52:13.000Z,4.40
2023-03-26T23:57:16.101Z,4.34
